sensor_id;sensor_type;location;lat;lon;timestamp;P1;durP1;ratioP1;P2;durP2;ratioP2
4933;SDS011;2482;49.154;8.254;2024-02-21T00:01:07;15.17;;;3.90;;
4933;SDS011;2482;49.154;8.254;2024-02-21T00:03:35;9.30;;;3.20;;
4933;SDS011;2482;49.154;8.254;2024-02-21T00:06:02;11.63;;;4.20;;
4933;SDS011;2482;49.154;8.254;2024-02-21T00:08:31;16.93;;;3.93;;
4933;SDS011;2482;49.154;8.254;2024-02-21T00:10:58;16.03;;;4.17;;
4933;SDS011;2482;49.154;8.254;2024-02-21T00:13:25;12.77;;;4.70;;
4933;SDS011;2482;49.154;8.254;2024-02-21T00:15:52;12.93;;;4.73;;
4933;SDS011;2482;49.154;8.254;2024-02-21T00:18:20;11.10;;;4.13;;
4933;SDS011;2482;49.154;8.254;2024-02-21T00:20:49;8.30;;;3.70;;
4933;SDS011;2482;49.154;8.254;2024-02-21T00:23:16;15.50;;;3.97;;
4933;SDS011;2482;49.154;8.254;2024-02-21T00:25:43;7.87;;;3.70;;
4933;SDS011;2482;49.154;8.254;2024-02-21T00:28:10;11.67;;;3.83;;
4933;SDS011;2482;49.154;8.254;2024-02-21T00:30:38;7.70;;;3.33;;
4933;SDS011;2482;49.154;8.254;2024-02-21T00:33:05;16.90;;;4.40;;
4933;SDS011;2482;49.154;8.254;2024-02-21T00:35:32;17.53;;;4.30;;
4933;SDS011;2482;49.154;8.254;2024-02-21T00:37:59;17.60;;;4.13;;
4933;SDS011;2482;49.154;8.254;2024-02-21T00:40:26;7.43;;;3.43;;
4933;SDS011;2482;49.154;8.254;2024-02-21T00:42:53;9.10;;;4.17;;
4933;SDS011;2482;49.154;8.254;2024-02-21T00:45:20;18.30;;;3.97;;
4933;SDS011;2482;49.154;8.254;2024-02-21T00:47:47;11.37;;;4.47;;
4933;SDS011;2482;49.154;8.254;2024-02-21T00:50:14;10.03;;;4.20;;
4933;SDS011;2482;49.154;8.254;2024-02-21T00:52:41;13.73;;;4.30;;
4933;SDS011;2482;49.154;8.254;2024-02-21T00:55:08;7.43;;;4.10;;
4933;SDS011;2482;49.154;8.254;2024-02-21T00:57:36;13.30;;;4.00;;
4933;SDS011;2482;49.154;8.254;2024-02-21T01:00:03;10.33;;;3.70;;
4933;SDS011;2482;49.154;8.254;2024-02-21T01:02:31;9.20;;;4.20;;
4933;SDS011;2482;49.154;8.254;2024-02-21T01:07:29;10.33;;;4.53;;
4933;SDS011;2482;49.154;8.254;2024-02-21T01:09:56;12.83;;;4.20;;
4933;SDS011;2482;49.154;8.254;2024-02-21T01:12:23;9.97;;;4.40;;
4933;SDS011;2482;49.154;8.254;2024-02-21T01:14:51;14.27;;;4.60;;
4933;SDS011;2482;49.154;8.254;2024-02-21T01:17:18;17.13;;;4.77;;
4933;SDS011;2482;49.154;8.254;2024-02-21T01:19:46;10.17;;;5.03;;
4933;SDS011;2482;49.154;8.254;2024-02-21T01:22:13;11.57;;;4.40;;
4933;SDS011;2482;49.154;8.254;2024-02-21T01:24:42;5.90;;;3.90;;
4933;SDS011;2482;49.154;8.254;2024-02-21T01:27:09;11.07;;;4.93;;
4933;SDS011;2482;49.154;8.254;2024-02-21T01:29:39;7.70;;;4.10;;
4933;SDS011;2482;49.154;8.254;2024-02-21T01:32:06;11.10;;;4.27;;
4933;SDS011;2482;49.154;8.254;2024-02-21T01:34:33;10.70;;;4.30;;
4933;SDS011;2482;49.154;8.254;2024-02-21T01:37:00;7.90;;;4.27;;
4933;SDS011;2482;49.154;8.254;2024-02-21T01:39:30;11.57;;;4.37;;
4933;SDS011;2482;49.154;8.254;2024-02-21T01:41:57;9.67;;;4.27;;
4933;SDS011;2482;49.154;8.254;2024-02-21T01:44:25;10.83;;;3.53;;
4933;SDS011;2482;49.154;8.254;2024-02-21T01:46:52;10.70;;;4.27;;
4933;SDS011;2482;49.154;8.254;2024-02-21T01:49:19;9.27;;;4.00;;
4933;SDS011;2482;49.154;8.254;2024-02-21T01:51:47;12.23;;;5.13;;
4933;SDS011;2482;49.154;8.254;2024-02-21T01:54:15;10.63;;;4.50;;
4933;SDS011;2482;49.154;8.254;2024-02-21T01:56:43;22.03;;;5.00;;
4933;SDS011;2482;49.154;8.254;2024-02-21T01:59:11;14.83;;;4.13;;
4933;SDS011;2482;49.154;8.254;2024-02-21T02:01:39;9.87;;;4.20;;
4933;SDS011;2482;49.154;8.254;2024-02-21T02:04:07;13.87;;;3.80;;
4933;SDS011;2482;49.154;8.254;2024-02-21T02:06:36;9.40;;;4.90;;
4933;SDS011;2482;49.154;8.254;2024-02-21T02:09:03;14.30;;;5.80;;
4933;SDS011;2482;49.154;8.254;2024-02-21T02:11:31;13.50;;;4.43;;
4933;SDS011;2482;49.154;8.254;2024-02-21T02:13:58;10.27;;;5.17;;
4933;SDS011;2482;49.154;8.254;2024-02-21T02:16:26;8.60;;;4.57;;
4933;SDS011;2482;49.154;8.254;2024-02-21T02:18:53;15.03;;;4.27;;
4933;SDS011;2482;49.154;8.254;2024-02-21T02:21:29;8.60;;;5.07;;
4933;SDS011;2482;49.154;8.254;2024-02-21T02:23:58;11.57;;;4.67;;
4933;SDS011;2482;49.154;8.254;2024-02-21T02:26:26;10.37;;;4.50;;
4933;SDS011;2482;49.154;8.254;2024-02-21T02:28:53;9.40;;;4.17;;
4933;SDS011;2482;49.154;8.254;2024-02-21T02:31:21;12.50;;;5.20;;
4933;SDS011;2482;49.154;8.254;2024-02-21T02:33:48;12.37;;;5.73;;
4933;SDS011;2482;49.154;8.254;2024-02-21T02:36:15;12.00;;;5.90;;
4933;SDS011;2482;49.154;8.254;2024-02-21T02:38:44;14.37;;;6.47;;
4933;SDS011;2482;49.154;8.254;2024-02-21T02:41:11;9.80;;;4.70;;
4933;SDS011;2482;49.154;8.254;2024-02-21T02:43:38;11.13;;;4.50;;
4933;SDS011;2482;49.154;8.254;2024-02-21T02:46:05;12.40;;;4.80;;
4933;SDS011;2482;49.154;8.254;2024-02-21T02:48:32;17.57;;;5.33;;
4933;SDS011;2482;49.154;8.254;2024-02-21T02:50:59;11.97;;;5.10;;
4933;SDS011;2482;49.154;8.254;2024-02-21T02:53:26;12.70;;;5.67;;
4933;SDS011;2482;49.154;8.254;2024-02-21T02:55:53;13.17;;;4.60;;
4933;SDS011;2482;49.154;8.254;2024-02-21T02:58:21;14.33;;;5.60;;
4933;SDS011;2482;49.154;8.254;2024-02-21T03:00:48;9.37;;;4.67;;
4933;SDS011;2482;49.154;8.254;2024-02-21T03:03:15;7.07;;;4.77;;
4933;SDS011;2482;49.154;8.254;2024-02-21T03:05:42;18.80;;;6.43;;
4933;SDS011;2482;49.154;8.254;2024-02-21T03:08:09;15.80;;;5.30;;
4933;SDS011;2482;49.154;8.254;2024-02-21T03:10:36;19.20;;;5.53;;
4933;SDS011;2482;49.154;8.254;2024-02-21T03:13:03;7.97;;;4.30;;
4933;SDS011;2482;49.154;8.254;2024-02-21T03:15:30;10.70;;;5.50;;
4933;SDS011;2482;49.154;8.254;2024-02-21T03:17:57;9.27;;;5.10;;
4933;SDS011;2482;49.154;8.254;2024-02-21T03:20:24;14.10;;;5.20;;
4933;SDS011;2482;49.154;8.254;2024-02-21T03:22:51;10.80;;;4.73;;
4933;SDS011;2482;49.154;8.254;2024-02-21T03:25:18;11.80;;;5.10;;
4933;SDS011;2482;49.154;8.254;2024-02-21T03:27:46;12.23;;;5.37;;
4933;SDS011;2482;49.154;8.254;2024-02-21T03:30:13;9.33;;;5.40;;
4933;SDS011;2482;49.154;8.254;2024-02-21T03:32:40;16.10;;;5.27;;
4933;SDS011;2482;49.154;8.254;2024-02-21T03:35:07;12.27;;;5.47;;
4933;SDS011;2482;49.154;8.254;2024-02-21T03:37:34;15.50;;;4.97;;
4933;SDS011;2482;49.154;8.254;2024-02-21T03:40:02;22.53;;;5.10;;
4933;SDS011;2482;49.154;8.254;2024-02-21T03:42:34;14.33;;;5.20;;
4933;SDS011;2482;49.154;8.254;2024-02-21T03:45:01;8.60;;;4.90;;
4933;SDS011;2482;49.154;8.254;2024-02-21T03:47:28;11.07;;;5.77;;
4933;SDS011;2482;49.154;8.254;2024-02-21T03:49:55;15.97;;;6.00;;
4933;SDS011;2482;49.154;8.254;2024-02-21T03:52:23;17.60;;;6.17;;
4933;SDS011;2482;49.154;8.254;2024-02-21T03:54:50;11.97;;;5.20;;
4933;SDS011;2482;49.154;8.254;2024-02-21T03:57:17;9.67;;;5.77;;
4933;SDS011;2482;49.154;8.254;2024-02-21T03:59:45;15.47;;;6.43;;
4933;SDS011;2482;49.154;8.254;2024-02-21T04:02:12;17.80;;;6.13;;
4933;SDS011;2482;49.154;8.254;2024-02-21T04:04:42;13.60;;;6.00;;
4933;SDS011;2482;49.154;8.254;2024-02-21T04:07:13;17.33;;;6.10;;
4933;SDS011;2482;49.154;8.254;2024-02-21T04:09:41;15.80;;;5.70;;
4933;SDS011;2482;49.154;8.254;2024-02-21T04:12:08;14.93;;;6.20;;
4933;SDS011;2482;49.154;8.254;2024-02-21T04:14:36;11.77;;;5.97;;
4933;SDS011;2482;49.154;8.254;2024-02-21T04:17:04;10.80;;;6.10;;
4933;SDS011;2482;49.154;8.254;2024-02-21T04:19:32;13.30;;;6.23;;
4933;SDS011;2482;49.154;8.254;2024-02-21T04:22:00;16.93;;;6.53;;
4933;SDS011;2482;49.154;8.254;2024-02-21T04:24:27;17.27;;;6.10;;
4933;SDS011;2482;49.154;8.254;2024-02-21T04:26:54;17.70;;;6.43;;
4933;SDS011;2482;49.154;8.254;2024-02-21T04:29:21;12.23;;;6.20;;
4933;SDS011;2482;49.154;8.254;2024-02-21T04:31:48;10.03;;;5.80;;
4933;SDS011;2482;49.154;8.254;2024-02-21T04:34:16;14.73;;;5.93;;
4933;SDS011;2482;49.154;8.254;2024-02-21T04:36:43;12.10;;;5.77;;
4933;SDS011;2482;49.154;8.254;2024-02-21T04:39:12;14.10;;;5.93;;
4933;SDS011;2482;49.154;8.254;2024-02-21T04:41:39;11.67;;;6.00;;
4933;SDS011;2482;49.154;8.254;2024-02-21T04:44:06;12.63;;;5.57;;
4933;SDS011;2482;49.154;8.254;2024-02-21T04:46:33;9.67;;;5.13;;
4933;SDS011;2482;49.154;8.254;2024-02-21T04:49:00;12.20;;;5.17;;
4933;SDS011;2482;49.154;8.254;2024-02-21T04:51:27;9.57;;;4.77;;
4933;SDS011;2482;49.154;8.254;2024-02-21T04:56:26;12.27;;;5.53;;
4933;SDS011;2482;49.154;8.254;2024-02-21T04:58:53;9.60;;;5.77;;
4933;SDS011;2482;49.154;8.254;2024-02-21T05:01:20;9.13;;;5.23;;
4933;SDS011;2482;49.154;8.254;2024-02-21T05:03:47;14.40;;;6.03;;
4933;SDS011;2482;49.154;8.254;2024-02-21T05:06:14;9.20;;;5.13;;
4933;SDS011;2482;49.154;8.254;2024-02-21T05:08:41;11.37;;;4.97;;
4933;SDS011;2482;49.154;8.254;2024-02-21T05:11:08;13.67;;;6.27;;
4933;SDS011;2482;49.154;8.254;2024-02-21T05:13:35;11.90;;;5.40;;
4933;SDS011;2482;49.154;8.254;2024-02-21T05:16:03;14.57;;;5.83;;
4933;SDS011;2482;49.154;8.254;2024-02-21T05:18:30;12.33;;;4.80;;
4933;SDS011;2482;49.154;8.254;2024-02-21T05:20:58;9.00;;;5.40;;
4933;SDS011;2482;49.154;8.254;2024-02-21T05:23:25;13.03;;;5.60;;
4933;SDS011;2482;49.154;8.254;2024-02-21T05:25:52;17.33;;;5.77;;
4933;SDS011;2482;49.154;8.254;2024-02-21T05:28:19;9.53;;;5.27;;
4933;SDS011;2482;49.154;8.254;2024-02-21T05:30:46;10.00;;;5.80;;
4933;SDS011;2482;49.154;8.254;2024-02-21T05:33:13;16.10;;;5.40;;
4933;SDS011;2482;49.154;8.254;2024-02-21T05:35:48;12.00;;;5.97;;
4933;SDS011;2482;49.154;8.254;2024-02-21T05:38:15;12.57;;;5.03;;
4933;SDS011;2482;49.154;8.254;2024-02-21T05:40:42;9.10;;;4.60;;
4933;SDS011;2482;49.154;8.254;2024-02-21T05:43:11;14.00;;;6.17;;
4933;SDS011;2482;49.154;8.254;2024-02-21T05:45:38;10.50;;;4.67;;
4933;SDS011;2482;49.154;8.254;2024-02-21T05:48:05;37.40;;;15.67;;
4933;SDS011;2482;49.154;8.254;2024-02-21T05:50:33;17.50;;;8.57;;
4933;SDS011;2482;49.154;8.254;2024-02-21T05:53:00;15.07;;;7.80;;
4933;SDS011;2482;49.154;8.254;2024-02-21T05:55:28;13.37;;;5.33;;
4933;SDS011;2482;49.154;8.254;2024-02-21T05:57:55;14.23;;;8.40;;
4933;SDS011;2482;49.154;8.254;2024-02-21T06:00:22;18.73;;;6.57;;
4933;SDS011;2482;49.154;8.254;2024-02-21T06:02:50;13.27;;;6.03;;
4933;SDS011;2482;49.154;8.254;2024-02-21T06:05:17;12.93;;;5.40;;
4933;SDS011;2482;49.154;8.254;2024-02-21T06:07:44;12.93;;;5.60;;
4933;SDS011;2482;49.154;8.254;2024-02-21T06:10:12;10.87;;;5.40;;
4933;SDS011;2482;49.154;8.254;2024-02-21T06:12:39;13.07;;;5.30;;
4933;SDS011;2482;49.154;8.254;2024-02-21T06:15:06;13.23;;;5.10;;
4933;SDS011;2482;49.154;8.254;2024-02-21T06:17:34;9.80;;;5.60;;
4933;SDS011;2482;49.154;8.254;2024-02-21T06:20:01;11.73;;;5.30;;
4933;SDS011;2482;49.154;8.254;2024-02-21T06:22:30;12.53;;;5.40;;
4933;SDS011;2482;49.154;8.254;2024-02-21T06:24:57;10.63;;;5.00;;
4933;SDS011;2482;49.154;8.254;2024-02-21T06:27:25;13.33;;;5.70;;
4933;SDS011;2482;49.154;8.254;2024-02-21T06:29:52;15.77;;;5.33;;
4933;SDS011;2482;49.154;8.254;2024-02-21T06:32:19;14.37;;;5.30;;
4933;SDS011;2482;49.154;8.254;2024-02-21T06:34:46;8.37;;;5.37;;
4933;SDS011;2482;49.154;8.254;2024-02-21T06:37:14;12.80;;;5.13;;
4933;SDS011;2482;49.154;8.254;2024-02-21T06:39:41;52.30;;;30.43;;
4933;SDS011;2482;49.154;8.254;2024-02-21T06:42:09;21.37;;;17.00;;
4933;SDS011;2482;49.154;8.254;2024-02-21T06:44:36;16.70;;;11.93;;
4933;SDS011;2482;49.154;8.254;2024-02-21T06:47:06;19.97;;;10.07;;
4933;SDS011;2482;49.154;8.254;2024-02-21T06:49:36;11.53;;;7.43;;
4933;SDS011;2482;49.154;8.254;2024-02-21T06:52:06;14.23;;;7.13;;
4933;SDS011;2482;49.154;8.254;2024-02-21T06:54:33;10.10;;;5.77;;
4933;SDS011;2482;49.154;8.254;2024-02-21T06:57:00;10.57;;;5.27;;
4933;SDS011;2482;49.154;8.254;2024-02-21T06:59:27;18.60;;;6.30;;
4933;SDS011;2482;49.154;8.254;2024-02-21T07:01:54;14.03;;;6.07;;
4933;SDS011;2482;49.154;8.254;2024-02-21T07:04:22;14.10;;;5.37;;
4933;SDS011;2482;49.154;8.254;2024-02-21T07:06:50;16.03;;;5.40;;
4933;SDS011;2482;49.154;8.254;2024-02-21T07:09:17;12.47;;;5.27;;
4933;SDS011;2482;49.154;8.254;2024-02-21T07:11:45;14.77;;;6.20;;
4933;SDS011;2482;49.154;8.254;2024-02-21T07:14:13;13.67;;;5.93;;
4933;SDS011;2482;49.154;8.254;2024-02-21T07:16:41;13.53;;;6.60;;
4933;SDS011;2482;49.154;8.254;2024-02-21T07:19:08;14.20;;;5.87;;
4933;SDS011;2482;49.154;8.254;2024-02-21T07:21:36;8.20;;;5.43;;
4933;SDS011;2482;49.154;8.254;2024-02-21T07:24:07;18.90;;;6.10;;
4933;SDS011;2482;49.154;8.254;2024-02-21T07:26:35;8.43;;;4.63;;
4933;SDS011;2482;49.154;8.254;2024-02-21T07:29:02;14.83;;;5.50;;
4933;SDS011;2482;49.154;8.254;2024-02-21T07:31:29;14.33;;;4.93;;
4933;SDS011;2482;49.154;8.254;2024-02-21T07:33:56;12.77;;;5.87;;
4933;SDS011;2482;49.154;8.254;2024-02-21T07:36:29;12.80;;;5.30;;
4933;SDS011;2482;49.154;8.254;2024-02-21T07:38:57;10.53;;;5.37;;
4933;SDS011;2482;49.154;8.254;2024-02-21T07:41:27;11.80;;;5.13;;
4933;SDS011;2482;49.154;8.254;2024-02-21T07:43:57;16.10;;;5.60;;
4933;SDS011;2482;49.154;8.254;2024-02-21T07:46:24;13.70;;;5.90;;
4933;SDS011;2482;49.154;8.254;2024-02-21T07:48:53;14.00;;;5.33;;
4933;SDS011;2482;49.154;8.254;2024-02-21T07:51:20;17.73;;;6.93;;
4933;SDS011;2482;49.154;8.254;2024-02-21T07:53:48;11.07;;;4.90;;
4933;SDS011;2482;49.154;8.254;2024-02-21T07:56:16;14.00;;;5.37;;
4933;SDS011;2482;49.154;8.254;2024-02-21T07:58:43;15.30;;;5.87;;
4933;SDS011;2482;49.154;8.254;2024-02-21T08:01:11;12.57;;;5.70;;
4933;SDS011;2482;49.154;8.254;2024-02-21T08:03:45;9.80;;;5.17;;
4933;SDS011;2482;49.154;8.254;2024-02-21T08:06:12;11.27;;;5.47;;
4933;SDS011;2482;49.154;8.254;2024-02-21T08:08:40;12.77;;;5.67;;
4933;SDS011;2482;49.154;8.254;2024-02-21T08:11:07;12.47;;;5.10;;
4933;SDS011;2482;49.154;8.254;2024-02-21T08:13:34;11.63;;;4.90;;
4933;SDS011;2482;49.154;8.254;2024-02-21T08:16:03;13.47;;;5.20;;
4933;SDS011;2482;49.154;8.254;2024-02-21T08:18:31;12.83;;;5.23;;
4933;SDS011;2482;49.154;8.254;2024-02-21T08:20:58;14.97;;;6.90;;
4933;SDS011;2482;49.154;8.254;2024-02-21T08:23:25;19.13;;;9.00;;
4933;SDS011;2482;49.154;8.254;2024-02-21T08:25:52;13.57;;;5.80;;
4933;SDS011;2482;49.154;8.254;2024-02-21T08:28:19;15.60;;;5.57;;
4933;SDS011;2482;49.154;8.254;2024-02-21T08:30:47;7.77;;;5.07;;
4933;SDS011;2482;49.154;8.254;2024-02-21T08:33:16;11.03;;;5.03;;
4933;SDS011;2482;49.154;8.254;2024-02-21T08:35:43;8.10;;;4.83;;
4933;SDS011;2482;49.154;8.254;2024-02-21T08:38:10;9.97;;;4.67;;
4933;SDS011;2482;49.154;8.254;2024-02-21T08:40:37;7.37;;;4.83;;
4933;SDS011;2482;49.154;8.254;2024-02-21T08:43:05;10.23;;;5.10;;
4933;SDS011;2482;49.154;8.254;2024-02-21T08:45:31;11.00;;;5.13;;
4933;SDS011;2482;49.154;8.254;2024-02-21T08:47:58;8.80;;;4.67;;
4933;SDS011;2482;49.154;8.254;2024-02-21T08:50:26;12.17;;;4.83;;
4933;SDS011;2482;49.154;8.254;2024-02-21T08:52:55;11.00;;;5.13;;
4933;SDS011;2482;49.154;8.254;2024-02-21T08:55:22;10.93;;;5.47;;
4933;SDS011;2482;49.154;8.254;2024-02-21T08:57:52;9.77;;;5.20;;
4933;SDS011;2482;49.154;8.254;2024-02-21T09:00:19;21.20;;;5.37;;
4933;SDS011;2482;49.154;8.254;2024-02-21T09:02:54;12.50;;;4.70;;
4933;SDS011;2482;49.154;8.254;2024-02-21T09:05:22;9.70;;;5.50;;
4933;SDS011;2482;49.154;8.254;2024-02-21T09:07:50;7.00;;;4.70;;
4933;SDS011;2482;49.154;8.254;2024-02-21T09:10:18;8.37;;;4.80;;
4933;SDS011;2482;49.154;8.254;2024-02-21T09:12:45;8.60;;;4.03;;
4933;SDS011;2482;49.154;8.254;2024-02-21T09:15:12;8.13;;;4.47;;
4933;SDS011;2482;49.154;8.254;2024-02-21T09:17:40;11.20;;;4.83;;
4933;SDS011;2482;49.154;8.254;2024-02-21T09:20:07;5.33;;;3.90;;
4933;SDS011;2482;49.154;8.254;2024-02-21T09:22:38;13.20;;;4.67;;
4933;SDS011;2482;49.154;8.254;2024-02-21T09:25:06;9.60;;;5.10;;
4933;SDS011;2482;49.154;8.254;2024-02-21T09:27:34;9.43;;;4.47;;
4933;SDS011;2482;49.154;8.254;2024-02-21T09:30:01;6.87;;;4.17;;
4933;SDS011;2482;49.154;8.254;2024-02-21T09:32:30;10.77;;;5.47;;
4933;SDS011;2482;49.154;8.254;2024-02-21T09:34:59;7.73;;;4.30;;
4933;SDS011;2482;49.154;8.254;2024-02-21T09:37:28;10.40;;;4.50;;
4933;SDS011;2482;49.154;8.254;2024-02-21T09:39:55;9.07;;;4.50;;
4933;SDS011;2482;49.154;8.254;2024-02-21T09:42:23;7.80;;;4.17;;
4933;SDS011;2482;49.154;8.254;2024-02-21T09:50:44;8.23;;;4.57;;
4933;SDS011;2482;49.154;8.254;2024-02-21T09:53:13;9.23;;;4.13;;
4933;SDS011;2482;49.154;8.254;2024-02-21T09:55:43;8.97;;;4.07;;
4933;SDS011;2482;49.154;8.254;2024-02-21T09:58:11;9.40;;;3.93;;
4933;SDS011;2482;49.154;8.254;2024-02-21T10:00:40;8.90;;;3.83;;
4933;SDS011;2482;49.154;8.254;2024-02-21T10:03:07;8.40;;;3.40;;
4933;SDS011;2482;49.154;8.254;2024-02-21T10:05:35;9.80;;;3.90;;
4933;SDS011;2482;49.154;8.254;2024-02-21T10:08:04;8.47;;;3.60;;
4933;SDS011;2482;49.154;8.254;2024-02-21T10:10:52;13.23;;;4.30;;
4933;SDS011;2482;49.154;8.254;2024-02-21T10:13:26;7.80;;;3.50;;
4933;SDS011;2482;49.154;8.254;2024-02-21T10:16:02;9.27;;;4.00;;
4933;SDS011;2482;49.154;8.254;2024-02-21T10:18:33;6.10;;;3.80;;
4933;SDS011;2482;49.154;8.254;2024-02-21T10:21:02;7.83;;;3.03;;
4933;SDS011;2482;49.154;8.254;2024-02-21T10:23:43;7.87;;;2.93;;
4933;SDS011;2482;49.154;8.254;2024-02-21T10:26:18;13.53;;;2.90;;
4933;SDS011;2482;49.154;8.254;2024-02-21T10:31:22;11.37;;;3.70;;
4933;SDS011;2482;49.154;8.254;2024-02-21T10:33:57;10.60;;;3.03;;
4933;SDS011;2482;49.154;8.254;2024-02-21T10:36:30;5.73;;;2.97;;
4933;SDS011;2482;49.154;8.254;2024-02-21T10:38:57;8.33;;;2.83;;
4933;SDS011;2482;49.154;8.254;2024-02-21T10:41:24;5.50;;;2.90;;
4933;SDS011;2482;49.154;8.254;2024-02-21T10:43:53;6.73;;;2.60;;
4933;SDS011;2482;49.154;8.254;2024-02-21T10:46:22;8.53;;;2.80;;
4933;SDS011;2482;49.154;8.254;2024-02-21T10:49:14;9.43;;;2.67;;
4933;SDS011;2482;49.154;8.254;2024-02-21T10:52:03;6.20;;;2.47;;
4933;SDS011;2482;49.154;8.254;2024-02-21T10:54:53;9.00;;;3.43;;
4933;SDS011;2482;49.154;8.254;2024-02-21T10:57:25;8.50;;;3.20;;
4933;SDS011;2482;49.154;8.254;2024-02-21T10:59:55;10.67;;;3.60;;
4933;SDS011;2482;49.154;8.254;2024-02-21T11:02:25;13.83;;;3.70;;
4933;SDS011;2482;49.154;8.254;2024-02-21T11:04:56;6.40;;;3.27;;
4933;SDS011;2482;49.154;8.254;2024-02-21T11:07:25;10.70;;;3.00;;
4933;SDS011;2482;49.154;8.254;2024-02-21T11:09:53;8.73;;;3.30;;
4933;SDS011;2482;49.154;8.254;2024-02-21T11:12:21;8.33;;;3.57;;
4933;SDS011;2482;49.154;8.254;2024-02-21T11:14:49;9.47;;;3.40;;
4933;SDS011;2482;49.154;8.254;2024-02-21T11:17:17;7.90;;;3.40;;
4933;SDS011;2482;49.154;8.254;2024-02-21T11:19:48;8.03;;;2.80;;
4933;SDS011;2482;49.154;8.254;2024-02-21T11:22:19;6.77;;;3.00;;
4933;SDS011;2482;49.154;8.254;2024-02-21T11:24:51;9.53;;;4.30;;
4933;SDS011;2482;49.154;8.254;2024-02-21T11:27:20;10.00;;;2.90;;
4933;SDS011;2482;49.154;8.254;2024-02-21T11:29:58;14.60;;;3.70;;
4933;SDS011;2482;49.154;8.254;2024-02-21T11:32:26;7.27;;;3.20;;
4933;SDS011;2482;49.154;8.254;2024-02-21T11:34:54;7.40;;;3.33;;
4933;SDS011;2482;49.154;8.254;2024-02-21T11:37:31;12.33;;;3.30;;
4933;SDS011;2482;49.154;8.254;2024-02-21T11:40:00;5.70;;;2.80;;
4933;SDS011;2482;49.154;8.254;2024-02-21T11:42:30;7.83;;;3.57;;
4933;SDS011;2482;49.154;8.254;2024-02-21T11:44:59;6.00;;;2.87;;
4933;SDS011;2482;49.154;8.254;2024-02-21T11:47:28;6.00;;;3.00;;
4933;SDS011;2482;49.154;8.254;2024-02-21T11:49:56;8.17;;;3.30;;
4933;SDS011;2482;49.154;8.254;2024-02-21T11:52:25;8.50;;;3.50;;
4933;SDS011;2482;49.154;8.254;2024-02-21T11:54:56;8.63;;;2.77;;
4933;SDS011;2482;49.154;8.254;2024-02-21T11:57:31;8.00;;;3.10;;
4933;SDS011;2482;49.154;8.254;2024-02-21T11:59:58;5.13;;;2.77;;
4933;SDS011;2482;49.154;8.254;2024-02-21T12:02:29;5.63;;;3.07;;
4933;SDS011;2482;49.154;8.254;2024-02-21T12:04:56;5.10;;;2.90;;
4933;SDS011;2482;49.154;8.254;2024-02-21T12:07:24;9.03;;;3.00;;
4933;SDS011;2482;49.154;8.254;2024-02-21T12:09:52;4.83;;;2.83;;
4933;SDS011;2482;49.154;8.254;2024-02-21T12:12:19;13.30;;;4.00;;
4933;SDS011;2482;49.154;8.254;2024-02-21T12:14:53;8.70;;;3.10;;
4933;SDS011;2482;49.154;8.254;2024-02-21T12:17:26;5.67;;;2.97;;
4933;SDS011;2482;49.154;8.254;2024-02-21T12:19:53;6.13;;;3.00;;
4933;SDS011;2482;49.154;8.254;2024-02-21T12:22:21;10.37;;;3.93;;
4933;SDS011;2482;49.154;8.254;2024-02-21T12:24:48;8.40;;;3.40;;
4933;SDS011;2482;49.154;8.254;2024-02-21T12:27:15;7.43;;;3.20;;
4933;SDS011;2482;49.154;8.254;2024-02-21T12:29:42;9.23;;;3.40;;
4933;SDS011;2482;49.154;8.254;2024-02-21T12:32:09;13.73;;;4.43;;
4933;SDS011;2482;49.154;8.254;2024-02-21T12:34:36;8.33;;;3.43;;
4933;SDS011;2482;49.154;8.254;2024-02-21T12:37:19;9.03;;;3.33;;
4933;SDS011;2482;49.154;8.254;2024-02-21T12:39:47;5.87;;;2.80;;
4933;SDS011;2482;49.154;8.254;2024-02-21T12:42:14;9.97;;;3.73;;
4933;SDS011;2482;49.154;8.254;2024-02-21T12:44:43;8.83;;;2.83;;
4933;SDS011;2482;49.154;8.254;2024-02-21T12:47:11;8.37;;;3.97;;
4933;SDS011;2482;49.154;8.254;2024-02-21T12:49:38;9.93;;;3.97;;
4933;SDS011;2482;49.154;8.254;2024-02-21T12:52:11;10.20;;;3.93;;
4933;SDS011;2482;49.154;8.254;2024-02-21T12:54:39;6.03;;;2.50;;
4933;SDS011;2482;49.154;8.254;2024-02-21T12:57:06;8.93;;;3.00;;
4933;SDS011;2482;49.154;8.254;2024-02-21T12:59:34;6.30;;;3.13;;
4933;SDS011;2482;49.154;8.254;2024-02-21T13:02:01;6.30;;;2.80;;
4933;SDS011;2482;49.154;8.254;2024-02-21T13:04:29;8.47;;;3.83;;
4933;SDS011;2482;49.154;8.254;2024-02-21T13:06:56;7.70;;;3.30;;
4933;SDS011;2482;49.154;8.254;2024-02-21T13:09:24;9.77;;;2.80;;
4933;SDS011;2482;49.154;8.254;2024-02-21T13:11:52;10.97;;;3.17;;
4933;SDS011;2482;49.154;8.254;2024-02-21T13:14:19;15.07;;;3.37;;
4933;SDS011;2482;49.154;8.254;2024-02-21T13:16:46;8.53;;;3.90;;
4933;SDS011;2482;49.154;8.254;2024-02-21T13:19:13;6.83;;;3.43;;
4933;SDS011;2482;49.154;8.254;2024-02-21T13:21:44;6.67;;;2.67;;
4933;SDS011;2482;49.154;8.254;2024-02-21T13:24:11;10.07;;;3.50;;
4933;SDS011;2482;49.154;8.254;2024-02-21T13:26:39;7.17;;;3.30;;
4933;SDS011;2482;49.154;8.254;2024-02-21T13:29:07;11.03;;;3.33;;
4933;SDS011;2482;49.154;8.254;2024-02-21T13:31:35;7.63;;;2.90;;
4933;SDS011;2482;49.154;8.254;2024-02-21T13:34:02;5.40;;;3.10;;
4933;SDS011;2482;49.154;8.254;2024-02-21T13:36:29;10.30;;;3.07;;
4933;SDS011;2482;49.154;8.254;2024-02-21T13:38:57;9.40;;;2.87;;
4933;SDS011;2482;49.154;8.254;2024-02-21T13:41:24;8.13;;;3.20;;
4933;SDS011;2482;49.154;8.254;2024-02-21T13:43:51;8.30;;;3.10;;
4933;SDS011;2482;49.154;8.254;2024-02-21T13:46:19;4.67;;;2.33;;
4933;SDS011;2482;49.154;8.254;2024-02-21T13:48:47;6.87;;;3.00;;
4933;SDS011;2482;49.154;8.254;2024-02-21T13:51:14;7.37;;;2.30;;
4933;SDS011;2482;49.154;8.254;2024-02-21T13:53:43;12.90;;;3.50;;
4933;SDS011;2482;49.154;8.254;2024-02-21T13:56:10;8.70;;;3.07;;
4933;SDS011;2482;49.154;8.254;2024-02-21T13:58:37;9.43;;;2.70;;
4933;SDS011;2482;49.154;8.254;2024-02-21T14:01:04;7.80;;;2.40;;
4933;SDS011;2482;49.154;8.254;2024-02-21T14:03:31;5.67;;;2.60;;
4933;SDS011;2482;49.154;8.254;2024-02-21T14:05:59;5.67;;;2.23;;
4933;SDS011;2482;49.154;8.254;2024-02-21T14:08:26;6.20;;;2.83;;
4933;SDS011;2482;49.154;8.254;2024-02-21T14:10:54;8.63;;;3.00;;
4933;SDS011;2482;49.154;8.254;2024-02-21T14:13:22;6.60;;;2.50;;
4933;SDS011;2482;49.154;8.254;2024-02-21T14:15:49;5.93;;;2.20;;
4933;SDS011;2482;49.154;8.254;2024-02-21T14:18:17;6.73;;;2.40;;
4933;SDS011;2482;49.154;8.254;2024-02-21T14:20:44;4.70;;;2.00;;
4933;SDS011;2482;49.154;8.254;2024-02-21T14:23:14;7.00;;;2.60;;
4933;SDS011;2482;49.154;8.254;2024-02-21T14:25:41;7.83;;;2.33;;
4933;SDS011;2482;49.154;8.254;2024-02-21T14:28:08;3.43;;;2.17;;
4933;SDS011;2482;49.154;8.254;2024-02-21T14:30:35;4.10;;;2.00;;
4933;SDS011;2482;49.154;8.254;2024-02-21T14:33:02;10.50;;;2.90;;
4933;SDS011;2482;49.154;8.254;2024-02-21T14:35:30;10.70;;;3.33;;
4933;SDS011;2482;49.154;8.254;2024-02-21T14:37:57;9.87;;;2.70;;
4933;SDS011;2482;49.154;8.254;2024-02-21T14:40:25;6.77;;;2.87;;
4933;SDS011;2482;49.154;8.254;2024-02-21T14:42:52;9.80;;;3.67;;
4933;SDS011;2482;49.154;8.254;2024-02-21T14:45:19;6.37;;;2.00;;
4933;SDS011;2482;49.154;8.254;2024-02-21T14:47:46;6.97;;;2.00;;
4933;SDS011;2482;49.154;8.254;2024-02-21T14:50:13;6.10;;;2.40;;
4933;SDS011;2482;49.154;8.254;2024-02-21T14:52:40;5.00;;;2.13;;
4933;SDS011;2482;49.154;8.254;2024-02-21T14:55:07;12.70;;;3.17;;
4933;SDS011;2482;49.154;8.254;2024-02-21T14:57:34;7.07;;;2.10;;
4933;SDS011;2482;49.154;8.254;2024-02-21T15:00:03;10.23;;;2.97;;
4933;SDS011;2482;49.154;8.254;2024-02-21T15:02:35;7.13;;;2.80;;
4933;SDS011;2482;49.154;8.254;2024-02-21T15:05:02;8.97;;;2.50;;
4933;SDS011;2482;49.154;8.254;2024-02-21T15:07:33;7.60;;;2.33;;
4933;SDS011;2482;49.154;8.254;2024-02-21T15:10:00;6.13;;;2.17;;
4933;SDS011;2482;49.154;8.254;2024-02-21T15:12:29;5.87;;;2.47;;
4933;SDS011;2482;49.154;8.254;2024-02-21T15:14:57;7.13;;;2.90;;
4933;SDS011;2482;49.154;8.254;2024-02-21T15:17:25;10.60;;;2.37;;
4933;SDS011;2482;49.154;8.254;2024-02-21T15:19:52;6.57;;;2.27;;
4933;SDS011;2482;49.154;8.254;2024-02-21T15:22:21;10.87;;;3.27;;
4933;SDS011;2482;49.154;8.254;2024-02-21T15:24:49;4.53;;;2.47;;
4933;SDS011;2482;49.154;8.254;2024-02-21T15:27:19;9.13;;;3.80;;